General Aviation Weather

Text Reports

Enter one or more of the following location identifiers separated by a space:

Zip Code, Four-Character ICAO or Three-Character IATA airport codes.

METAR - Aviation Routine Weather Report
KDNV - Danville, Illinois
Updated at 4:15 PM GMT on June 02, 2015 (11:15 AM CDT):
METAR KDNV 021615Z AUTO 08007KT 10SM SCT027 18/11 A3014 RMK AO2 T01750109
TAF - Terminal Area Forecast
KDNV - Danville, Illinois
Updated at 4:15 PM GMT on June 02, 2015 (11:15 AM CDT):
No TAF is currently available for this location.
Decoded:
No decoded TAF is available.
PIREP - Pilot Weather Report
KDNV - Danville, Illinois
Updated at 4:15 PM GMT on June 02, 2015 (11:15 AM CDT):
No PIREP is currently available for this location.
AIRMET - Airmens Meteorological Information
KDNV - Danville, Illinois
Updated at 4:15 PM GMT on June 02, 2015 (11:15 AM CDT):
No AIRMET is currently available for this location.
SIGMET - Significant Meteorological Information
KDNV - Danville, Illinois
Updated at 4:15 PM GMT on June 02, 2015 (11:15 AM CDT):
No SIGMET is currently available for this location.
NOTAM - Notice to Airmen
KDNV - Danville, Illinois
Updated at 4:15 PM GMT on June 02, 2015 (11:15 AM CDT):
No NOTAM is currently available for this location.
Forecast Area
KDNV - Danville, Illinois
Updated at 4:15 PM GMT on June 02, 2015 (11:15 AM CDT):
No NOTAM is currently available for this location.
Aviation Weather Maps